createdAt,value
2019-05-11T00:01:27.236Z,94393.78
2019-05-11T00:06:32.013Z,94408.11
2019-05-11T00:11:36.798Z,94409.92
2019-05-11T00:16:41.558Z,94405.28
2019-05-11T00:21:46.455Z,94403.73
2019-05-11T00:26:51.222Z,94398.05
2019-05-11T00:31:56.296Z,94399.70
2019-05-11T00:37:01.130Z,94400.25
2019-05-11T00:42:05.895Z,94403.14
2019-05-11T00:47:10.648Z,94399.86
2019-05-11T00:52:15.435Z,94404.09
2019-05-11T00:57:21.245Z,94412.58
2019-05-11T01:02:25.991Z,94407.27
2019-05-11T01:07:30.696Z,94404.77
2019-05-11T01:12:35.402Z,94401.79
2019-05-11T01:17:40.177Z,94401.78
2019-05-11T01:22:44.954Z,94397.63
2019-05-11T01:27:50.974Z,94393.11
2019-05-11T01:32:55.818Z,94416.45
2019-05-11T01:38:00.612Z,94417.45
2019-05-11T01:43:05.419Z,94417.31
2019-05-11T01:48:10.220Z,94426.33
2019-05-11T01:53:15.011Z,94431.00
2019-05-11T01:58:19.820Z,94440.00
2019-05-11T02:03:24.627Z,94447.16
2019-05-11T02:08:29.402Z,94443.66
2019-05-11T02:13:34.169Z,94439.02
2019-05-11T02:18:38.943Z,94439.19
2019-05-11T02:23:43.736Z,94438.34
2019-05-11T02:28:48.517Z,94440.02
2019-05-11T02:33:54.368Z,94432.39
2019-05-11T02:38:59.134Z,94429.05
2019-05-11T02:44:05.701Z,94437.51
2019-05-11T02:49:10.489Z,94446.02
2019-05-11T02:54:15.539Z,94447.34
2019-05-11T02:59:20.306Z,94455.98
2019-05-11T03:04:25.118Z,94460.30
2019-05-11T03:09:30.846Z,94463.77
2019-05-11T03:14:35.628Z,94469.62
2019-05-11T03:19:40.410Z,94475.59
2019-05-11T03:24:45.191Z,94481.09
2019-05-11T03:29:49.972Z,94481.25
2019-05-11T03:34:54.782Z,94482.08
2019-05-11T03:39:59.528Z,94488.41
2019-05-11T03:45:06.902Z,94494.09
2019-05-11T03:50:11.779Z,94502.77
2019-05-11T03:55:16.769Z,94502.80
2019-05-11T04:00:22.156Z,94503.42
2019-05-11T04:05:26.866Z,94510.22
2019-05-11T04:10:31.536Z,94516.59
2019-05-11T04:15:36.158Z,94529.79
2019-05-11T04:20:40.875Z,94529.79
2019-05-11T04:25:45.611Z,94535.19
2019-05-11T04:30:50.214Z,94532.95
2019-05-11T04:35:54.825Z,94535.55
2019-05-11T04:40:59.362Z,94535.63
2019-05-11T04:46:04.007Z,94535.05
2019-05-11T04:51:08.696Z,94528.95
2019-05-11T04:56:13.425Z,94534.45
2019-05-11T05:01:18.065Z,94536.36
2019-05-11T05:06:24.618Z,94549.31
2019-05-11T05:11:30.693Z,94552.69
2019-05-11T05:16:35.257Z,94563.72
2019-05-11T05:21:39.962Z,94564.23
2019-05-11T05:26:44.656Z,94568.03
2019-05-11T05:31:49.378Z,94573.80
2019-05-11T05:36:54.096Z,94567.69
2019-05-11T05:41:58.792Z,94577.81
2019-05-11T05:47:03.463Z,94579.88
2019-05-11T05:52:08.049Z,94574.33
2019-05-11T05:57:12.663Z,94575.88
2019-05-11T06:02:17.286Z,94569.89
2019-05-11T06:07:21.888Z,94582.47
2019-05-11T06:12:27.413Z,94585.72
2019-05-11T06:17:32.086Z,94590.14
2019-05-11T06:22:36.659Z,94609.62
2019-05-11T06:27:41.251Z,94607.37
2019-05-11T06:32:45.986Z,94616.80
2019-05-11T06:37:50.507Z,94618.81
2019-05-11T06:42:55.129Z,94619.54
2019-05-11T06:48:00.778Z,94617.45
2019-05-11T06:53:05.416Z,94620.84
2019-05-11T06:58:10.111Z,94623.00
2019-05-11T07:03:14.689Z,94623.81
2019-05-11T07:08:19.259Z,94617.34
2019-05-11T07:13:23.830Z,94613.62
2019-05-11T07:18:28.307Z,94617.27
2019-05-11T07:23:34.024Z,94613.35
2019-05-11T07:28:38.523Z,94608.53
2019-05-11T07:33:43.219Z,94611.25
2019-05-11T07:38:48.734Z,94608.11
2019-05-11T07:43:53.470Z,94614.26
2019-05-11T07:48:58.617Z,94617.67
2019-05-11T07:54:03.215Z,94621.23
2019-05-11T07:59:08.095Z,94624.75
2019-05-11T08:04:12.673Z,94621.14
2019-05-11T08:09:18.700Z,94627.77
2019-05-11T08:14:23.599Z,94623.53
2019-05-11T08:19:28.453Z,94624.42
2019-05-11T08:24:34.011Z,94627.86
2019-05-11T08:29:38.598Z,94624.90
2019-05-11T08:34:43.189Z,94620.41
2019-05-11T08:39:48.299Z,94627.20
2019-05-11T08:44:52.873Z,94617.47
2019-05-11T08:49:58.952Z,94609.81
2019-05-11T08:55:04.033Z,94602.11
2019-05-11T09:00:11.525Z,94595.73
2019-05-11T09:05:18.690Z,94586.43
2019-05-11T09:10:23.626Z,94597.26
2019-05-11T09:15:36.292Z,94597.84
2019-05-11T09:20:34.612Z,94597.28
2019-05-11T09:25:39.353Z,94611.47
2019-05-11T09:30:44.048Z,94601.11
2019-05-11T09:35:53.004Z,94595.67
2019-05-11T09:40:58.392Z,94600.05
2019-05-11T09:46:02.193Z,94587.20
2019-05-11T09:51:07.878Z,94587.76
2019-05-11T09:56:12.757Z,94582.12
2019-05-11T10:01:18.292Z,94580.11
2019-05-11T10:06:23.228Z,94579.89
2019-05-11T10:11:28.320Z,94577.84
2019-05-11T10:16:33.979Z,94579.27
2019-05-11T10:21:38.828Z,94575.80
2019-05-11T10:26:43.375Z,94564.63
2019-05-11T10:31:48.252Z,94576.48
2019-05-11T10:36:53.710Z,94569.92
2019-05-11T10:41:58.562Z,94561.71
2019-05-11T10:47:03.096Z,94543.82
2019-05-11T10:52:10.815Z,94549.55
2019-05-11T10:57:15.366Z,94550.24
2019-05-11T11:02:20.975Z,94556.38
2019-05-11T11:07:25.505Z,94542.80
2019-05-11T11:12:30.208Z,94542.05
2019-05-11T11:17:34.911Z,94547.06
2019-05-11T11:22:43.834Z,94539.84
2019-05-11T11:27:45.691Z,94538.69
2019-05-11T11:32:50.272Z,94532.15
2019-05-11T11:37:54.826Z,94536.39
2019-05-11T11:42:59.430Z,94536.83
2019-05-11T11:48:04.187Z,94522.77
2019-05-11T11:53:08.662Z,94513.64
2019-05-11T11:58:13.229Z,94512.41
2019-05-11T12:03:18.550Z,94517.06
2019-05-11T12:08:23.166Z,94512.33
2019-05-11T12:13:29.694Z,94508.77
2019-05-11T12:18:38.235Z,94499.77
2019-05-11T12:23:42.813Z,94499.55
2019-05-11T12:28:48.948Z,94488.59
2019-05-11T12:33:53.688Z,94496.14
2019-05-11T12:38:58.252Z,94488.20
2019-05-11T12:44:03.694Z,94481.02
2019-05-11T12:49:08.491Z,94486.59
2019-05-11T12:54:13.156Z,94482.95
2019-05-11T12:59:18.738Z,94480.69
2019-05-11T13:04:24.554Z,94469.89
2019-05-11T13:09:29.343Z,94468.05
2019-05-11T13:14:33.915Z,94471.91
2019-05-11T13:19:38.664Z,94462.71
2019-05-11T13:24:43.349Z,94466.27
2019-05-11T13:29:48.626Z,94465.80
2019-05-11T13:34:53.309Z,94461.50
2019-05-11T13:39:58.075Z,94455.95
2019-05-11T13:45:02.569Z,94451.06
2019-05-11T13:50:07.846Z,94453.83
2019-05-11T13:55:12.474Z,94444.98
2019-05-11T14:00:17.694Z,94449.12
2019-05-11T14:05:22.374Z,94453.06
2019-05-11T14:10:28.296Z,94457.87
2019-05-11T14:15:33.316Z,94456.81
2019-05-11T14:20:38.083Z,94445.19
2019-05-11T14:25:42.747Z,94454.41
2019-05-11T14:30:48.586Z,94444.50
2019-05-11T14:35:53.518Z,94449.34
2019-05-11T14:40:58.576Z,94448.19
2019-05-11T14:46:03.374Z,94443.00
2019-05-11T14:51:08.566Z,94449.22
2019-05-11T14:56:13.324Z,94451.87
2019-05-11T15:01:18.548Z,94454.23
2019-05-11T15:06:23.235Z,94453.61
2019-05-11T15:11:28.155Z,94445.12
2019-05-11T15:16:33.726Z,94441.05
2019-05-11T15:21:38.820Z,94448.27
2019-05-11T15:26:43.480Z,94439.75
2019-05-11T15:31:48.570Z,94444.17
2019-05-11T15:36:53.220Z,94439.42
2019-05-11T15:42:09.197Z,94442.38
2019-05-11T15:47:07.760Z,94443.86
2019-05-11T15:52:12.023Z,94443.59
2019-05-11T15:57:17.938Z,94434.03
2019-05-11T16:02:22.590Z,94441.45
2019-05-11T16:07:28.171Z,94440.61
2019-05-11T16:12:32.822Z,94444.86
2019-05-11T16:17:40.059Z,94452.23
2019-05-11T16:22:43.842Z,94453.59
2019-05-11T16:27:48.481Z,94452.98
2019-05-11T16:32:53.108Z,94449.13
2019-05-11T16:37:59.252Z,94455.38
2019-05-11T16:43:04.161Z,94459.09
2019-05-11T16:48:08.752Z,94459.28
2019-05-11T16:53:13.312Z,94469.00
2019-05-11T16:58:19.757Z,94476.69
2019-05-11T17:03:24.209Z,94481.22
2019-05-11T17:08:28.808Z,94480.03
2019-05-11T17:13:33.407Z,94494.56
2019-05-11T17:18:38.270Z,94498.01
2019-05-11T17:23:42.898Z,94501.63
2019-05-11T17:28:48.988Z,94501.45
2019-05-11T17:33:53.655Z,94509.58
2019-05-11T17:38:58.373Z,94507.77
2019-05-11T17:44:02.941Z,94513.06
2019-05-11T17:49:07.957Z,94520.83
2019-05-11T17:54:12.796Z,94519.17
2019-05-11T17:59:19.520Z,94526.58
2019-05-11T18:04:23.745Z,94527.66
2019-05-11T18:09:28.335Z,94530.40
2019-05-11T18:14:35.913Z,94530.40
2019-05-11T18:19:39.342Z,94523.33
2019-05-11T18:24:44.865Z,94525.34
2019-05-11T18:29:49.520Z,94539.53
2019-05-11T18:34:54.082Z,94539.53
2019-05-11T18:39:58.851Z,94546.20
2019-05-11T18:45:03.445Z,94544.64
2019-05-11T18:50:08.960Z,94546.47
2019-05-11T18:55:13.592Z,94547.98
2019-05-11T19:00:18.644Z,94551.47
2019-05-11T19:05:23.356Z,94556.91
2019-05-11T19:10:28.104Z,94570.52
2019-05-11T19:15:32.740Z,94565.06
2019-05-11T19:20:45.280Z,94576.30
2019-05-11T19:25:43.934Z,94577.24
2019-05-11T19:30:48.937Z,94583.77
2019-05-11T19:35:54.609Z,94584.77
2019-05-11T19:40:59.223Z,94584.44
2019-05-11T19:46:03.920Z,94585.55
2019-05-11T19:51:11.710Z,94578.48
2019-05-11T19:56:14.940Z,94582.69
2019-05-11T20:01:19.413Z,94592.15
2019-05-11T20:06:24.121Z,94591.71
2019-05-11T20:11:29.789Z,94595.73
2019-05-11T20:16:34.307Z,94596.58
2019-05-11T20:21:38.856Z,94593.45
2019-05-11T20:26:43.494Z,94594.02
2019-05-11T20:31:49.165Z,94605.30
2019-05-11T20:36:53.896Z,94607.63
2019-05-11T20:41:58.593Z,94610.20
2019-05-11T20:47:06.560Z,94612.72
2019-05-11T20:52:11.171Z,94603.98
2019-05-11T20:57:17.844Z,94603.36
2019-05-11T21:02:21.915Z,94610.91
2019-05-11T21:07:27.993Z,94619.04
2019-05-11T21:12:32.730Z,94626.56
2019-05-11T21:17:37.373Z,94631.83
2019-05-11T21:22:41.950Z,94629.53
2019-05-11T21:27:48.627Z,94635.31
2019-05-11T21:32:52.920Z,94642.45
2019-05-11T21:37:58.039Z,94644.88
2019-05-11T21:43:02.705Z,94641.24
2019-05-11T21:48:07.199Z,94635.17
2019-05-11T21:53:11.811Z,94630.03
2019-05-11T21:58:18.278Z,94630.06
2019-05-11T22:03:22.729Z,94626.42
2019-05-11T22:08:28.359Z,94616.41
2019-05-11T22:13:33.119Z,94607.69
2019-05-11T22:18:38.084Z,94599.00
2019-05-11T22:23:42.661Z,94594.49
2019-05-11T22:28:48.207Z,94595.03
2019-05-11T22:33:53.933Z,94597.37
2019-05-11T22:38:58.967Z,94596.70
2019-05-11T22:44:04.926Z,94605.79
2019-05-11T22:49:09.445Z,94603.88
2019-05-11T22:54:14.092Z,94602.71
2019-05-11T22:59:18.651Z,94610.26
2019-05-11T23:04:23.155Z,94600.61
2019-05-11T23:09:27.797Z,94606.42
2019-05-11T23:14:32.756Z,94604.33
2019-05-11T23:19:38.098Z,94605.66
2019-05-11T23:24:42.794Z,94605.20
2019-05-11T23:29:47.740Z,94604.55
2019-05-11T23:34:52.444Z,94602.38
2019-05-11T23:39:59.511Z,94594.22
2019-05-11T23:45:08.803Z,94599.73
2019-05-11T23:50:14.131Z,94600.09
2019-05-11T23:55:19.421Z,94601.75
